sensor_id;sensor_type;location;lat;lon;timestamp;P1;durP1;ratioP1;P2;durP2;ratioP2
57433;SDS011;43277;52.672;6.984;2023-07-31T00:00:14;5.82;;;2.30;;
57433;SDS011;43277;52.672;6.984;2023-07-31T00:02:40;7.18;;;2.90;;
57433;SDS011;43277;52.672;6.984;2023-07-31T00:05:08;6.68;;;2.80;;
57433;SDS011;43277;52.672;6.984;2023-07-31T00:07:34;5.88;;;2.58;;
57433;SDS011;43277;52.672;6.984;2023-07-31T00:10:00;6.05;;;2.50;;
57433;SDS011;43277;52.672;6.984;2023-07-31T00:12:25;8.95;;;2.70;;
57433;SDS011;43277;52.672;6.984;2023-07-31T00:14:51;6.65;;;3.03;;
57433;SDS011;43277;52.672;6.984;2023-07-31T00:17:16;7.28;;;2.90;;
57433;SDS011;43277;52.672;6.984;2023-07-31T00:19:42;7.25;;;3.00;;
57433;SDS011;43277;52.672;6.984;2023-07-31T00:22:08;7.15;;;3.13;;
57433;SDS011;43277;52.672;6.984;2023-07-31T00:24:34;6.70;;;2.90;;
57433;SDS011;43277;52.672;6.984;2023-07-31T00:26:59;5.78;;;2.90;;
57433;SDS011;43277;52.672;6.984;2023-07-31T00:29:25;6.03;;;2.55;;
57433;SDS011;43277;52.672;6.984;2023-07-31T00:31:51;5.60;;;2.63;;
57433;SDS011;43277;52.672;6.984;2023-07-31T00:34:16;6.45;;;2.95;;
57433;SDS011;43277;52.672;6.984;2023-07-31T00:36:42;5.55;;;2.50;;
57433;SDS011;43277;52.672;6.984;2023-07-31T00:39:07;5.70;;;2.80;;
57433;SDS011;43277;52.672;6.984;2023-07-31T00:41:33;5.85;;;2.45;;
57433;SDS011;43277;52.672;6.984;2023-07-31T00:43:59;5.82;;;2.50;;
57433;SDS011;43277;52.672;6.984;2023-07-31T00:46:24;5.80;;;2.47;;
57433;SDS011;43277;52.672;6.984;2023-07-31T00:48:50;6.43;;;2.75;;
57433;SDS011;43277;52.672;6.984;2023-07-31T00:51:16;5.95;;;2.80;;
57433;SDS011;43277;52.672;6.984;2023-07-31T00:53:42;7.05;;;2.83;;
57433;SDS011;43277;52.672;6.984;2023-07-31T00:56:08;6.75;;;2.90;;
57433;SDS011;43277;52.672;6.984;2023-07-31T00:58:35;6.60;;;2.70;;
57433;SDS011;43277;52.672;6.984;2023-07-31T01:01:00;5.13;;;2.50;;
57433;SDS011;43277;52.672;6.984;2023-07-31T01:03:26;4.90;;;2.22;;
57433;SDS011;43277;52.672;6.984;2023-07-31T01:06:09;5.35;;;2.30;;
57433;SDS011;43277;52.672;6.984;2023-07-31T01:09:24;4.95;;;2.08;;
57433;SDS011;43277;52.672;6.984;2023-07-31T01:11:47;6.72;;;2.47;;
57433;SDS011;43277;52.672;6.984;2023-07-31T01:14:17;5.13;;;2.70;;
57433;SDS011;43277;52.672;6.984;2023-07-31T01:16:42;5.65;;;2.20;;
57433;SDS011;43277;52.672;6.984;2023-07-31T01:19:08;5.47;;;2.13;;
57433;SDS011;43277;52.672;6.984;2023-07-31T01:24:18;5.40;;;1.23;;
57433;SDS011;43277;52.672;6.984;2023-07-31T01:26:57;6.03;;;2.42;;
57433;SDS011;43277;52.672;6.984;2023-07-31T01:30:14;4.55;;;2.25;;
57433;SDS011;43277;52.672;6.984;2023-07-31T01:32:35;4.80;;;1.95;;
57433;SDS011;43277;52.672;6.984;2023-07-31T01:35:04;4.03;;;1.52;;
57433;SDS011;43277;52.672;6.984;2023-07-31T01:37:31;6.38;;;2.30;;
57433;SDS011;43277;52.672;6.984;2023-07-31T01:39:56;5.65;;;2.17;;
57433;SDS011;43277;52.672;6.984;2023-07-31T01:42:22;5.47;;;1.90;;
57433;SDS011;43277;52.672;6.984;2023-07-31T01:44:47;4.03;;;1.20;;
57433;SDS011;43277;52.672;6.984;2023-07-31T01:47:13;4.13;;;1.67;;
57433;SDS011;43277;52.672;6.984;2023-07-31T01:49:39;7.45;;;2.30;;
57433;SDS011;43277;52.672;6.984;2023-07-31T01:52:04;3.95;;;1.33;;
57433;SDS011;43277;52.672;6.984;2023-07-31T01:54:30;4.57;;;2.10;;
57433;SDS011;43277;52.672;6.984;2023-07-31T01:56:56;5.28;;;1.65;;
57433;SDS011;43277;52.672;6.984;2023-07-31T01:59:22;4.93;;;2.08;;
57433;SDS011;43277;52.672;6.984;2023-07-31T02:01:47;4.80;;;1.73;;
57433;SDS011;43277;52.672;6.984;2023-07-31T02:04:13;5.68;;;1.90;;
57433;SDS011;43277;52.672;6.984;2023-07-31T02:06:39;4.05;;;1.70;;
57433;SDS011;43277;52.672;6.984;2023-07-31T02:09:04;3.97;;;1.42;;
57433;SDS011;43277;52.672;6.984;2023-07-31T02:11:30;4.40;;;1.67;;
57433;SDS011;43277;52.672;6.984;2023-07-31T02:13:56;2.90;;;1.05;;
57433;SDS011;43277;52.672;6.984;2023-07-31T02:16:21;4.18;;;1.58;;
57433;SDS011;43277;52.672;6.984;2023-07-31T02:18:47;3.95;;;1.50;;
57433;SDS011;43277;52.672;6.984;2023-07-31T02:21:12;4.00;;;1.50;;
57433;SDS011;43277;52.672;6.984;2023-07-31T02:23:38;4.47;;;1.85;;
57433;SDS011;43277;52.672;6.984;2023-07-31T02:26:04;3.83;;;1.30;;
57433;SDS011;43277;52.672;6.984;2023-07-31T02:28:29;6.63;;;1.80;;
57433;SDS011;43277;52.672;6.984;2023-07-31T02:30:55;4.45;;;1.60;;
57433;SDS011;43277;52.672;6.984;2023-07-31T02:33:21;5.45;;;1.40;;
57433;SDS011;43277;52.672;6.984;2023-07-31T02:35:46;4.22;;;1.40;;
57433;SDS011;43277;52.672;6.984;2023-07-31T02:38:12;4.35;;;1.23;;
57433;SDS011;43277;52.672;6.984;2023-07-31T02:40:38;4.20;;;1.40;;
57433;SDS011;43277;52.672;6.984;2023-07-31T02:43:06;4.70;;;1.42;;
57433;SDS011;43277;52.672;6.984;2023-07-31T02:45:32;4.13;;;1.50;;
57433;SDS011;43277;52.672;6.984;2023-07-31T02:47:57;3.45;;;1.33;;
57433;SDS011;43277;52.672;6.984;2023-07-31T02:50:23;3.70;;;1.30;;
57433;SDS011;43277;52.672;6.984;2023-07-31T02:52:49;6.30;;;1.67;;
57433;SDS011;43277;52.672;6.984;2023-07-31T02:55:14;4.10;;;1.65;;
57433;SDS011;43277;52.672;6.984;2023-07-31T02:57:40;4.30;;;1.48;;
57433;SDS011;43277;52.672;6.984;2023-07-31T03:00:06;3.95;;;1.40;;
57433;SDS011;43277;52.672;6.984;2023-07-31T03:02:32;3.83;;;1.40;;
57433;SDS011;43277;52.672;6.984;2023-07-31T03:04:58;4.38;;;1.40;;
57433;SDS011;43277;52.672;6.984;2023-07-31T03:07:23;4.10;;;1.48;;
57433;SDS011;43277;52.672;6.984;2023-07-31T03:09:49;4.75;;;1.40;;
57433;SDS011;43277;52.672;6.984;2023-07-31T03:12:14;4.35;;;1.38;;
57433;SDS011;43277;52.672;6.984;2023-07-31T03:14:40;4.40;;;1.40;;
57433;SDS011;43277;52.672;6.984;2023-07-31T03:17:06;4.50;;;1.60;;
57433;SDS011;43277;52.672;6.984;2023-07-31T03:19:31;3.55;;;1.50;;
57433;SDS011;43277;52.672;6.984;2023-07-31T03:21:58;4.78;;;1.55;;
57433;SDS011;43277;52.672;6.984;2023-07-31T03:24:24;3.75;;;1.23;;
57433;SDS011;43277;52.672;6.984;2023-07-31T03:26:50;4.25;;;1.42;;
57433;SDS011;43277;52.672;6.984;2023-07-31T03:29:15;4.70;;;1.38;;
57433;SDS011;43277;52.672;6.984;2023-07-31T03:31:41;4.20;;;1.20;;
57433;SDS011;43277;52.672;6.984;2023-07-31T03:34:06;4.00;;;1.27;;
57433;SDS011;43277;52.672;6.984;2023-07-31T03:36:32;3.38;;;1.27;;
57433;SDS011;43277;52.672;6.984;2023-07-31T03:38:58;4.32;;;1.45;;
57433;SDS011;43277;52.672;6.984;2023-07-31T03:41:23;4.25;;;1.50;;
57433;SDS011;43277;52.672;6.984;2023-07-31T03:43:50;4.55;;;1.70;;
57433;SDS011;43277;52.672;6.984;2023-07-31T03:46:17;6.32;;;1.70;;
57433;SDS011;43277;52.672;6.984;2023-07-31T03:48:42;4.72;;;1.75;;
57433;SDS011;43277;52.672;6.984;2023-07-31T03:51:08;4.13;;;1.60;;
57433;SDS011;43277;52.672;6.984;2023-07-31T03:53:34;5.80;;;1.95;;
57433;SDS011;43277;52.672;6.984;2023-07-31T03:56:00;4.57;;;1.48;;
57433;SDS011;43277;52.672;6.984;2023-07-31T03:58:25;4.85;;;1.70;;
57433;SDS011;43277;52.672;6.984;2023-07-31T04:00:51;5.70;;;1.70;;
57433;SDS011;43277;52.672;6.984;2023-07-31T04:03:16;4.20;;;1.60;;
57433;SDS011;43277;52.672;6.984;2023-07-31T04:05:42;5.47;;;1.80;;
57433;SDS011;43277;52.672;6.984;2023-07-31T04:08:07;5.20;;;1.63;;
57433;SDS011;43277;52.672;6.984;2023-07-31T04:10:33;3.97;;;1.48;;
57433;SDS011;43277;52.672;6.984;2023-07-31T04:12:59;4.18;;;1.48;;
57433;SDS011;43277;52.672;6.984;2023-07-31T04:15:25;4.97;;;1.70;;
57433;SDS011;43277;52.672;6.984;2023-07-31T04:17:51;4.85;;;1.40;;
57433;SDS011;43277;52.672;6.984;2023-07-31T04:20:17;5.18;;;1.30;;
57433;SDS011;43277;52.672;6.984;2023-07-31T04:22:45;5.53;;;1.30;;
57433;SDS011;43277;52.672;6.984;2023-07-31T04:25:10;4.75;;;1.35;;
57433;SDS011;43277;52.672;6.984;2023-07-31T04:27:36;5.25;;;1.20;;
57433;SDS011;43277;52.672;6.984;2023-07-31T04:30:02;5.75;;;1.40;;
57433;SDS011;43277;52.672;6.984;2023-07-31T04:32:28;6.28;;;1.38;;
57433;SDS011;43277;52.672;6.984;2023-07-31T04:34:54;6.65;;;2.42;;
57433;SDS011;43277;52.672;6.984;2023-07-31T04:37:20;9.73;;;3.40;;
57433;SDS011;43277;52.672;6.984;2023-07-31T04:39:46;11.68;;;4.65;;
57433;SDS011;43277;52.672;6.984;2023-07-31T04:42:11;11.52;;;4.45;;
57433;SDS011;43277;52.672;6.984;2023-07-31T04:44:37;12.48;;;4.95;;
57433;SDS011;43277;52.672;6.984;2023-07-31T04:47:03;12.00;;;5.50;;
57433;SDS011;43277;52.672;6.984;2023-07-31T04:49:28;17.83;;;6.40;;
57433;SDS011;43277;52.672;6.984;2023-07-31T04:51:54;15.02;;;5.95;;
57433;SDS011;43277;52.672;6.984;2023-07-31T04:54:20;14.77;;;6.32;;
57433;SDS011;43277;52.672;6.984;2023-07-31T04:56:45;13.40;;;6.03;;
57433;SDS011;43277;52.672;6.984;2023-07-31T04:59:12;17.92;;;6.57;;
57433;SDS011;43277;52.672;6.984;2023-07-31T05:01:38;18.08;;;6.60;;
57433;SDS011;43277;52.672;6.984;2023-07-31T05:04:03;16.38;;;7.00;;
57433;SDS011;43277;52.672;6.984;2023-07-31T05:06:29;16.15;;;6.82;;
57433;SDS011;43277;52.672;6.984;2023-07-31T05:08:54;18.95;;;7.95;;
57433;SDS011;43277;52.672;6.984;2023-07-31T05:11:20;17.25;;;7.40;;
57433;SDS011;43277;52.672;6.984;2023-07-31T05:13:49;17.10;;;7.30;;
57433;SDS011;43277;52.672;6.984;2023-07-31T05:16:14;20.65;;;8.45;;
57433;SDS011;43277;52.672;6.984;2023-07-31T05:18:40;23.02;;;9.02;;
57433;SDS011;43277;52.672;6.984;2023-07-31T05:21:05;22.23;;;8.77;;
57433;SDS011;43277;52.672;6.984;2023-07-31T05:23:32;24.77;;;10.23;;
57433;SDS011;43277;52.672;6.984;2023-07-31T05:26:04;24.23;;;10.52;;
57433;SDS011;43277;52.672;6.984;2023-07-31T05:28:31;26.30;;;10.02;;
57433;SDS011;43277;52.672;6.984;2023-07-31T05:31:00;25.08;;;10.05;;
57433;SDS011;43277;52.672;6.984;2023-07-31T05:33:26;27.73;;;10.50;;
57433;SDS011;43277;52.672;6.984;2023-07-31T05:35:52;22.73;;;9.45;;
57433;SDS011;43277;52.672;6.984;2023-07-31T05:38:18;28.95;;;10.68;;
57433;SDS011;43277;52.672;6.984;2023-07-31T05:40:44;24.65;;;9.65;;
57433;SDS011;43277;52.672;6.984;2023-07-31T05:43:09;20.88;;;9.27;;
57433;SDS011;43277;52.672;6.984;2023-07-31T05:45:35;26.60;;;9.95;;
57433;SDS011;43277;52.672;6.984;2023-07-31T05:48:02;25.10;;;10.93;;
57433;SDS011;43277;52.672;6.984;2023-07-31T05:50:28;27.75;;;10.45;;
57433;SDS011;43277;52.672;6.984;2023-07-31T05:52:53;23.73;;;10.52;;
57433;SDS011;43277;52.672;6.984;2023-07-31T05:55:19;26.70;;;11.30;;
57433;SDS011;43277;52.672;6.984;2023-07-31T05:57:45;23.92;;;10.50;;
57433;SDS011;43277;52.672;6.984;2023-07-31T06:00:12;30.73;;;11.50;;
57433;SDS011;43277;52.672;6.984;2023-07-31T06:02:38;26.98;;;11.77;;
57433;SDS011;43277;52.672;6.984;2023-07-31T06:05:04;30.85;;;11.85;;
57433;SDS011;43277;52.672;6.984;2023-07-31T06:07:34;30.08;;;12.07;;
57433;SDS011;43277;52.672;6.984;2023-07-31T06:09:59;28.77;;;12.00;;
57433;SDS011;43277;52.672;6.984;2023-07-31T06:12:33;33.70;;;12.25;;
57433;SDS011;43277;52.672;6.984;2023-07-31T06:14:59;26.98;;;11.07;;
57433;SDS011;43277;52.672;6.984;2023-07-31T06:17:25;25.80;;;11.35;;
57433;SDS011;43277;52.672;6.984;2023-07-31T06:19:51;28.33;;;12.15;;
57433;SDS011;43277;52.672;6.984;2023-07-31T06:22:17;26.60;;;11.98;;
57433;SDS011;43277;52.672;6.984;2023-07-31T06:24:43;26.40;;;11.95;;
57433;SDS011;43277;52.672;6.984;2023-07-31T06:27:09;29.42;;;11.63;;
57433;SDS011;43277;52.672;6.984;2023-07-31T06:29:36;26.95;;;11.55;;
57433;SDS011;43277;52.672;6.984;2023-07-31T06:32:01;28.67;;;11.95;;
57433;SDS011;43277;52.672;6.984;2023-07-31T06:34:27;24.95;;;10.57;;
57433;SDS011;43277;52.672;6.984;2023-07-31T06:36:53;28.60;;;11.82;;
57433;SDS011;43277;52.672;6.984;2023-07-31T06:39:18;26.52;;;11.27;;
57433;SDS011;43277;52.672;6.984;2023-07-31T06:41:44;25.67;;;11.20;;
57433;SDS011;43277;52.672;6.984;2023-07-31T06:44:10;25.63;;;10.32;;
57433;SDS011;43277;52.672;6.984;2023-07-31T06:46:36;29.63;;;11.50;;
57433;SDS011;43277;52.672;6.984;2023-07-31T06:49:02;30.65;;;11.18;;
57433;SDS011;43277;52.672;6.984;2023-07-31T06:51:27;25.80;;;11.30;;
57433;SDS011;43277;52.672;6.984;2023-07-31T06:53:53;26.17;;;11.50;;
57433;SDS011;43277;52.672;6.984;2023-07-31T06:56:18;30.00;;;11.00;;
57433;SDS011;43277;52.672;6.984;2023-07-31T06:58:45;26.60;;;10.18;;
57433;SDS011;43277;52.672;6.984;2023-07-31T07:01:11;24.27;;;10.52;;
57433;SDS011;43277;52.672;6.984;2023-07-31T07:03:40;27.45;;;10.32;;
57433;SDS011;43277;52.672;6.984;2023-07-31T07:06:05;26.20;;;10.30;;
57433;SDS011;43277;52.672;6.984;2023-07-31T07:08:32;23.08;;;9.88;;
57433;SDS011;43277;52.672;6.984;2023-07-31T07:10:57;23.45;;;9.43;;
57433;SDS011;43277;52.672;6.984;2023-07-31T07:13:23;24.27;;;10.50;;
57433;SDS011;43277;52.672;6.984;2023-07-31T07:15:49;24.63;;;10.45;;
57433;SDS011;43277;52.672;6.984;2023-07-31T07:18:15;21.38;;;10.32;;
57433;SDS011;43277;52.672;6.984;2023-07-31T07:20:46;25.40;;;9.77;;
57433;SDS011;43277;52.672;6.984;2023-07-31T07:23:14;19.83;;;8.77;;
57433;SDS011;43277;52.672;6.984;2023-07-31T07:25:40;20.33;;;8.77;;
57433;SDS011;43277;52.672;6.984;2023-07-31T07:28:05;19.77;;;8.32;;
57433;SDS011;43277;52.672;6.984;2023-07-31T07:30:31;20.45;;;9.13;;
57433;SDS011;43277;52.672;6.984;2023-07-31T07:32:56;18.63;;;9.50;;
57433;SDS011;43277;52.672;6.984;2023-07-31T07:35:22;19.70;;;8.70;;
57433;SDS011;43277;52.672;6.984;2023-07-31T07:37:48;18.48;;;8.35;;
57433;SDS011;43277;52.672;6.984;2023-07-31T07:40:15;17.52;;;8.18;;
57433;SDS011;43277;52.672;6.984;2023-07-31T07:42:41;14.93;;;7.57;;
57433;SDS011;43277;52.672;6.984;2023-07-31T07:45:06;15.27;;;7.30;;
57433;SDS011;43277;52.672;6.984;2023-07-31T07:47:32;13.43;;;6.45;;
57433;SDS011;43277;52.672;6.984;2023-07-31T07:49:58;14.43;;;6.57;;
57433;SDS011;43277;52.672;6.984;2023-07-31T07:52:24;15.68;;;6.88;;
57433;SDS011;43277;52.672;6.984;2023-07-31T07:54:50;16.50;;;6.38;;
57433;SDS011;43277;52.672;6.984;2023-07-31T07:57:16;14.95;;;6.22;;
57433;SDS011;43277;52.672;6.984;2023-07-31T07:59:41;13.27;;;6.10;;
57433;SDS011;43277;52.672;6.984;2023-07-31T08:02:07;13.85;;;5.72;;
57433;SDS011;43277;52.672;6.984;2023-07-31T08:04:32;12.15;;;5.80;;
57433;SDS011;43277;52.672;6.984;2023-07-31T08:06:58;13.85;;;5.72;;
57433;SDS011;43277;52.672;6.984;2023-07-31T08:09:24;11.68;;;5.28;;
57433;SDS011;43277;52.672;6.984;2023-07-31T08:11:49;11.40;;;5.30;;
57433;SDS011;43277;52.672;6.984;2023-07-31T08:14:15;9.13;;;4.70;;
57433;SDS011;43277;52.672;6.984;2023-07-31T08:16:41;11.68;;;4.65;;
57433;SDS011;43277;52.672;6.984;2023-07-31T08:19:06;12.60;;;4.65;;
57433;SDS011;43277;52.672;6.984;2023-07-31T08:21:32;11.10;;;4.72;;
57433;SDS011;43277;52.672;6.984;2023-07-31T08:23:57;10.77;;;5.20;;
57433;SDS011;43277;52.672;6.984;2023-07-31T08:26:23;9.50;;;4.55;;
57433;SDS011;43277;52.672;6.984;2023-07-31T08:28:49;10.43;;;4.70;;
57433;SDS011;43277;52.672;6.984;2023-07-31T08:31:14;8.38;;;4.28;;
57433;SDS011;43277;52.672;6.984;2023-07-31T08:33:40;8.77;;;3.72;;
57433;SDS011;43277;52.672;6.984;2023-07-31T08:36:06;7.90;;;3.83;;
57433;SDS011;43277;52.672;6.984;2023-07-31T08:38:32;8.90;;;3.78;;
57433;SDS011;43277;52.672;6.984;2023-07-31T08:40:57;8.65;;;3.67;;
57433;SDS011;43277;52.672;6.984;2023-07-31T08:43:26;10.73;;;3.45;;
57433;SDS011;43277;52.672;6.984;2023-07-31T08:45:52;8.65;;;3.50;;
57433;SDS011;43277;52.672;6.984;2023-07-31T08:48:19;8.68;;;3.53;;
57433;SDS011;43277;52.672;6.984;2023-07-31T08:50:46;9.10;;;3.60;;
57433;SDS011;43277;52.672;6.984;2023-07-31T08:53:12;9.15;;;3.58;;
57433;SDS011;43277;52.672;6.984;2023-07-31T08:55:38;9.18;;;3.40;;
57433;SDS011;43277;52.672;6.984;2023-07-31T08:58:04;7.95;;;3.25;;
57433;SDS011;43277;52.672;6.984;2023-07-31T09:00:30;7.55;;;2.72;;
57433;SDS011;43277;52.672;6.984;2023-07-31T09:02:59;8.65;;;2.88;;
57433;SDS011;43277;52.672;6.984;2023-07-31T09:05:28;6.80;;;2.78;;
57433;SDS011;43277;52.672;6.984;2023-07-31T09:07:55;7.15;;;2.63;;
57433;SDS011;43277;52.672;6.984;2023-07-31T09:10:22;9.35;;;2.67;;
57433;SDS011;43277;52.672;6.984;2023-07-31T09:12:48;7.38;;;2.55;;
57433;SDS011;43277;52.672;6.984;2023-07-31T09:15:15;6.68;;;2.30;;
57433;SDS011;43277;52.672;6.984;2023-07-31T09:17:41;7.45;;;2.60;;
57433;SDS011;43277;52.672;6.984;2023-07-31T09:20:14;6.45;;;2.03;;
57433;SDS011;43277;52.672;6.984;2023-07-31T09:22:44;5.22;;;1.70;;
57433;SDS011;43277;52.672;6.984;2023-07-31T09:25:17;5.93;;;1.67;;
57433;SDS011;43277;52.672;6.984;2023-07-31T09:28:00;4.10;;;1.30;;
57433;SDS011;43277;52.672;6.984;2023-07-31T09:30:27;5.72;;;1.70;;
57433;SDS011;43277;52.672;6.984;2023-07-31T09:33:05;3.70;;;1.20;;
57433;SDS011;43277;52.672;6.984;2023-07-31T09:35:33;4.47;;;1.38;;
57433;SDS011;43277;52.672;6.984;2023-07-31T09:38:01;4.20;;;1.38;;
57433;SDS011;43277;52.672;6.984;2023-07-31T09:40:31;5.32;;;1.20;;
57433;SDS011;43277;52.672;6.984;2023-07-31T09:43:01;5.55;;;1.10;;
57433;SDS011;43277;52.672;6.984;2023-07-31T09:45:29;2.83;;;0.85;;
57433;SDS011;43277;52.672;6.984;2023-07-31T09:47:55;3.13;;;0.80;;
57433;SDS011;43277;52.672;6.984;2023-07-31T09:50:22;4.13;;;1.02;;
57433;SDS011;43277;52.672;6.984;2023-07-31T09:52:49;2.63;;;0.70;;
57433;SDS011;43277;52.672;6.984;2023-07-31T09:55:16;2.35;;;0.70;;
57433;SDS011;43277;52.672;6.984;2023-07-31T09:57:48;3.30;;;0.90;;
57433;SDS011;43277;52.672;6.984;2023-07-31T10:00:15;3.03;;;0.80;;
57433;SDS011;43277;52.672;6.984;2023-07-31T10:02:44;2.25;;;0.80;;
57433;SDS011;43277;52.672;6.984;2023-07-31T10:05:12;2.88;;;0.80;;
57433;SDS011;43277;52.672;6.984;2023-07-31T10:07:40;2.95;;;0.90;;
57433;SDS011;43277;52.672;6.984;2023-07-31T10:10:10;2.57;;;0.90;;
57433;SDS011;43277;52.672;6.984;2023-07-31T10:12:35;2.25;;;0.80;;
57433;SDS011;43277;52.672;6.984;2023-07-31T10:15:02;2.38;;;0.80;;
57433;SDS011;43277;52.672;6.984;2023-07-31T10:17:29;2.55;;;0.90;;
57433;SDS011;43277;52.672;6.984;2023-07-31T10:19:57;2.40;;;0.85;;
57433;SDS011;43277;52.672;6.984;2023-07-31T10:22:28;2.10;;;0.80;;
57433;SDS011;43277;52.672;6.984;2023-07-31T10:24:54;3.17;;;1.08;;
57433;SDS011;43277;52.672;6.984;2023-07-31T10:27:24;3.05;;;1.00;;
57433;SDS011;43277;52.672;6.984;2023-07-31T10:29:50;3.10;;;1.00;;
57433;SDS011;43277;52.672;6.984;2023-07-31T10:32:18;3.17;;;1.20;;
57433;SDS011;43277;52.672;6.984;2023-07-31T10:34:45;3.53;;;1.10;;
57433;SDS011;43277;52.672;6.984;2023-07-31T10:39:56;2.42;;;1.00;;
57433;SDS011;43277;52.672;6.984;2023-07-31T10:42:29;2.13;;;0.80;;
57433;SDS011;43277;52.672;6.984;2023-07-31T10:47:26;2.47;;;0.80;;
57433;SDS011;43277;52.672;6.984;2023-07-31T10:49:52;2.30;;;0.80;;
57433;SDS011;43277;52.672;6.984;2023-07-31T10:52:21;2.25;;;0.80;;
57433;SDS011;43277;52.672;6.984;2023-07-31T10:54:48;3.13;;;0.90;;
57433;SDS011;43277;52.672;6.984;2023-07-31T10:57:19;2.38;;;0.98;;
57433;SDS011;43277;52.672;6.984;2023-07-31T10:59:48;2.25;;;1.00;;
57433;SDS011;43277;52.672;6.984;2023-07-31T11:02:27;2.88;;;1.20;;
57433;SDS011;43277;52.672;6.984;2023-07-31T11:05:10;3.08;;;1.13;;
57433;SDS011;43277;52.672;6.984;2023-07-31T11:07:46;2.80;;;1.05;;
57433;SDS011;43277;52.672;6.984;2023-07-31T11:10:15;2.60;;;1.15;;
57433;SDS011;43277;52.672;6.984;2023-07-31T11:12:42;2.70;;;1.20;;
57433;SDS011;43277;52.672;6.984;2023-07-31T11:15:08;3.78;;;1.20;;
57433;SDS011;43277;52.672;6.984;2023-07-31T11:17:39;3.88;;;1.40;;
57433;SDS011;43277;52.672;6.984;2023-07-31T11:20:05;3.80;;;1.40;;
57433;SDS011;43277;52.672;6.984;2023-07-31T11:22:35;3.67;;;1.60;;
57433;SDS011;43277;52.672;6.984;2023-07-31T11:25:02;4.13;;;1.70;;
57433;SDS011;43277;52.672;6.984;2023-07-31T11:27:29;3.13;;;1.30;;
57433;SDS011;43277;52.672;6.984;2023-07-31T11:30:01;4.10;;;1.50;;
57433;SDS011;43277;52.672;6.984;2023-07-31T11:32:28;3.53;;;1.50;;
57433;SDS011;43277;52.672;6.984;2023-07-31T11:34:54;3.50;;;1.30;;
57433;SDS011;43277;52.672;6.984;2023-07-31T11:37:20;3.38;;;1.63;;
57433;SDS011;43277;52.672;6.984;2023-07-31T11:39:58;4.60;;;1.83;;
57433;SDS011;43277;52.672;6.984;2023-07-31T11:42:25;4.05;;;1.80;;
57433;SDS011;43277;52.672;6.984;2023-07-31T11:44:50;4.22;;;1.88;;
57433;SDS011;43277;52.672;6.984;2023-07-31T11:47:16;4.90;;;2.20;;
57433;SDS011;43277;52.672;6.984;2023-07-31T11:49:43;5.63;;;2.42;;
57433;SDS011;43277;52.672;6.984;2023-07-31T11:52:09;6.40;;;2.70;;
57433;SDS011;43277;52.672;6.984;2023-07-31T11:54:36;4.85;;;2.70;;
57433;SDS011;43277;52.672;6.984;2023-07-31T11:57:01;5.50;;;2.58;;
57433;SDS011;43277;52.672;6.984;2023-07-31T11:59:29;4.95;;;2.70;;
57433;SDS011;43277;52.672;6.984;2023-07-31T12:01:55;6.10;;;3.10;;
57433;SDS011;43277;52.672;6.984;2023-07-31T12:04:21;6.22;;;3.42;;
57433;SDS011;43277;52.672;6.984;2023-07-31T12:06:47;6.00;;;3.50;;
57433;SDS011;43277;52.672;6.984;2023-07-31T12:09:14;7.80;;;4.00;;
57433;SDS011;43277;52.672;6.984;2023-07-31T12:11:46;5.65;;;3.95;;
57433;SDS011;43277;52.672;6.984;2023-07-31T12:14:46;7.32;;;4.32;;
57433;SDS011;43277;52.672;6.984;2023-07-31T12:17:06;6.38;;;4.22;;
57433;SDS011;43277;52.672;6.984;2023-07-31T12:19:33;6.28;;;4.22;;
57433;SDS011;43277;52.672;6.984;2023-07-31T12:22:00;8.35;;;4.80;;
57433;SDS011;43277;52.672;6.984;2023-07-31T12:24:26;7.40;;;5.35;;
57433;SDS011;43277;52.672;6.984;2023-07-31T12:26:52;6.57;;;4.85;;
57433;SDS011;43277;52.672;6.984;2023-07-31T12:29:18;6.93;;;5.50;;
57433;SDS011;43277;52.672;6.984;2023-07-31T12:31:43;7.95;;;5.10;;
57433;SDS011;43277;52.672;6.984;2023-07-31T12:34:15;8.82;;;5.50;;
57433;SDS011;43277;52.672;6.984;2023-07-31T12:36:43;8.35;;;5.35;;
57433;SDS011;43277;52.672;6.984;2023-07-31T12:39:09;8.13;;;5.32;;
57433;SDS011;43277;52.672;6.984;2023-07-31T12:41:35;7.93;;;4.93;;
57433;SDS011;43277;52.672;6.984;2023-07-31T12:44:01;7.82;;;5.43;;
57433;SDS011;43277;52.672;6.984;2023-07-31T12:46:28;7.38;;;5.47;;
57433;SDS011;43277;52.672;6.984;2023-07-31T12:48:53;7.70;;;5.25;;
57433;SDS011;43277;52.672;6.984;2023-07-31T12:51:19;7.95;;;5.03;;
57433;SDS011;43277;52.672;6.984;2023-07-31T12:53:46;6.63;;;4.43;;
57433;SDS011;43277;52.672;6.984;2023-07-31T12:56:11;8.50;;;4.70;;
57433;SDS011;43277;52.672;6.984;2023-07-31T12:58:37;8.35;;;5.10;;
57433;SDS011;43277;52.672;6.984;2023-07-31T13:01:03;8.23;;;5.40;;
57433;SDS011;43277;52.672;6.984;2023-07-31T13:03:28;7.15;;;5.15;;
57433;SDS011;43277;52.672;6.984;2023-07-31T13:05:54;6.70;;;4.57;;
57433;SDS011;43277;52.672;6.984;2023-07-31T13:08:20;7.28;;;3.38;;
57433;SDS011;43277;52.672;6.984;2023-07-31T13:10:46;5.47;;;3.05;;
57433;SDS011;43277;52.672;6.984;2023-07-31T13:13:11;5.88;;;3.35;;
57433;SDS011;43277;52.672;6.984;2023-07-31T13:15:37;6.43;;;3.35;;
57433;SDS011;43277;52.672;6.984;2023-07-31T13:18:03;6.25;;;3.40;;
57433;SDS011;43277;52.672;6.984;2023-07-31T13:20:28;5.38;;;2.60;;
57433;SDS011;43277;52.672;6.984;2023-07-31T13:22:54;5.95;;;2.40;;
57433;SDS011;43277;52.672;6.984;2023-07-31T13:25:20;5.40;;;2.20;;
57433;SDS011;43277;52.672;6.984;2023-07-31T13:27:45;5.53;;;2.45;;
57433;SDS011;43277;52.672;6.984;2023-07-31T13:30:11;6.07;;;2.97;;
57433;SDS011;43277;52.672;6.984;2023-07-31T13:32:37;7.32;;;3.60;;
57433;SDS011;43277;52.672;6.984;2023-07-31T13:35:04;6.65;;;3.53;;
57433;SDS011;43277;52.672;6.984;2023-07-31T13:37:33;7.20;;;4.32;;
57433;SDS011;43277;52.672;6.984;2023-07-31T13:39:59;6.88;;;4.30;;
57433;SDS011;43277;52.672;6.984;2023-07-31T13:42:25;7.78;;;4.30;;
57433;SDS011;43277;52.672;6.984;2023-07-31T13:44:51;7.38;;;4.28;;
57433;SDS011;43277;52.672;6.984;2023-07-31T13:47:17;7.47;;;4.25;;
57433;SDS011;43277;52.672;6.984;2023-07-31T13:49:43;7.22;;;4.10;;
57433;SDS011;43277;52.672;6.984;2023-07-31T13:52:09;6.88;;;3.80;;
57433;SDS011;43277;52.672;6.984;2023-07-31T13:54:34;6.72;;;3.58;;
57433;SDS011;43277;52.672;6.984;2023-07-31T13:57:00;7.13;;;3.72;;
57433;SDS011;43277;52.672;6.984;2023-07-31T13:59:26;8.63;;;3.65;;
57433;SDS011;43277;52.672;6.984;2023-07-31T14:01:51;6.20;;;3.10;;
57433;SDS011;43277;52.672;6.984;2023-07-31T14:04:17;6.63;;;3.40;;
57433;SDS011;43277;52.672;6.984;2023-07-31T14:06:43;5.40;;;2.38;;
57433;SDS011;43277;52.672;6.984;2023-07-31T14:09:09;7.38;;;2.42;;
57433;SDS011;43277;52.672;6.984;2023-07-31T14:11:34;7.65;;;1.92;;
57433;SDS011;43277;52.672;6.984;2023-07-31T14:14:00;4.88;;;1.70;;
57433;SDS011;43277;52.672;6.984;2023-07-31T14:16:29;5.40;;;1.85;;
57433;SDS011;43277;52.672;6.984;2023-07-31T14:18:55;3.92;;;1.38;;
57433;SDS011;43277;52.672;6.984;2023-07-31T14:21:20;5.18;;;1.50;;
57433;SDS011;43277;52.672;6.984;2023-07-31T14:23:46;4.20;;;1.60;;
57433;SDS011;43277;52.672;6.984;2023-07-31T14:26:12;4.40;;;2.00;;
57433;SDS011;43277;52.672;6.984;2023-07-31T14:28:38;6.10;;;2.00;;
57433;SDS011;43277;52.672;6.984;2023-07-31T14:31:03;5.07;;;1.65;;
57433;SDS011;43277;52.672;6.984;2023-07-31T14:33:29;5.22;;;2.00;;
57433;SDS011;43277;52.672;6.984;2023-07-31T14:35:55;4.35;;;1.90;;
57433;SDS011;43277;52.672;6.984;2023-07-31T14:38:20;5.05;;;1.75;;
57433;SDS011;43277;52.672;6.984;2023-07-31T14:40:46;4.40;;;1.50;;
57433;SDS011;43277;52.672;6.984;2023-07-31T14:43:12;4.80;;;1.50;;
57433;SDS011;43277;52.672;6.984;2023-07-31T14:45:38;5.20;;;1.33;;
57433;SDS011;43277;52.672;6.984;2023-07-31T14:48:03;2.95;;;1.20;;